Time;durP1;ratioP1;P1;durP2;ratioP2;P2;SDS_P1;SDS_P2;PMS_P1;PMS_P2;Temp;Humidity;BMP_temperature;BMP_pressure;BME280_temperature;BME280_humidity;BME280_pressure;Samples;Min_cycle;Max_cycle;Signal;HPM_P1;HPM_P2
2024/02/22 00:01:55;;;;;;;5.47;3.55;;;7.00;99.90;;;;;;5004128;28;20077;-64
2024/02/22 00:04:21;;;;;;;5.43;3.60;;;7.00;99.90;;;;;;4986021;28;20020;-64
2024/02/22 00:06:46;;;;;;;8.15;3.83;;;7.00;99.90;;;;;;5017442;28;21255;-64
2024/02/22 00:09:12;;;;;;;7.57;4.20;;;7.00;99.90;;;;;;5067778;28;20032;-64
2024/02/22 00:11:37;;;;;;;4.28;3.65;;;7.00;99.90;;;;;;4987884;28;20027;-64
2024/02/22 00:14:03;;;;;;;6.63;4.35;;;7.00;99.90;;;;;;4993282;28;20188;-64
2024/02/22 00:16:28;;;;;;;6.07;3.83;;;7.00;99.90;;;;;;4976410;28;20050;-64
2024/02/22 00:18:54;;;;;;;9.30;4.07;;;7.00;99.90;;;;;;4994309;28;20033;-64
2024/02/22 00:21:19;;;;;;;5.60;4.03;;;7.00;99.90;;;;;;5051394;28;20061;-64
2024/02/22 00:23:45;;;;;;;8.30;3.78;;;7.00;99.90;;;;;;4996653;28;20025;-64
2024/02/22 00:26:12;;;;;;;11.30;5.03;;;7.00;99.90;;;;;;4987344;28;20024;-66
2024/02/22 00:28:38;;;;;;;9.27;4.38;;;7.00;99.90;;;;;;4954976;23;20050;-60
2024/02/22 00:31:04;;;;;;;9.50;4.75;;;7.00;99.90;;;;;;4929930;28;20090;-59
2024/02/22 00:33:29;;;;;;;5.07;3.92;;;7.00;99.90;;;;;;4965947;28;20453;-61
2024/02/22 00:35:55;;;;;;;8.27;4.03;;;7.00;99.90;;;;;;4938344;28;20129;-61
2024/02/22 00:38:21;;;;;;;8.13;4.03;;;7.00;99.90;;;;;;4923511;28;20074;-59
2024/02/22 00:40:46;;;;;;;8.10;4.65;;;7.00;99.90;;;;;;4921134;28;20501;-59
2024/02/22 00:43:12;;;;;;;6.70;4.25;;;7.00;99.90;;;;;;4906183;28;20068;-58
2024/02/22 00:45:37;;;;;;;10.52;3.85;;;7.00;99.90;;;;;;4917064;28;20046;-61
2024/02/22 00:48:03;;;;;;;7.55;4.10;;;7.00;99.90;;;;;;4948173;28;20076;-56
2024/02/22 00:50:29;;;;;;;6.93;4.25;;;7.00;99.90;;;;;;4909401;28;22331;-59
2024/02/22 00:52:55;;;;;;;4.55;3.92;;;7.00;99.90;;;;;;4926177;28;20044;-59
2024/02/22 00:55:21;;;;;;;7.30;4.22;;;7.00;99.90;;;;;;4901432;28;20026;-59
2024/02/22 00:57:46;;;;;;;8.27;3.58;;;7.00;99.90;;;;;;4904089;28;21500;-58
2024/02/22 01:00:12;;;;;;;7.15;4.18;;;7.00;99.90;;;;;;4963941;28;20040;-58
2024/02/22 01:02:38;;;;;;;5.20;4.15;;;7.00;99.90;;;;;;4912936;28;20516;-58
2024/02/22 01:05:04;;;;;;;6.65;4.18;;;7.00;99.90;;;;;;4920980;28;20030;-60
2024/02/22 01:07:31;;;;;;;4.80;3.72;;;7.00;99.90;;;;;;4909414;28;20033;-59
2024/02/22 01:09:57;;;;;;;9.05;4.55;;;7.00;99.90;;;;;;4903269;28;21616;-58
2024/02/22 01:12:23;;;;;;;6.47;4.15;;;7.00;99.90;;;;;;4946415;28;20478;-57
2024/02/22 01:14:49;;;;;;;8.40;3.78;;;7.00;99.90;;;;;;4902371;28;20037;-59
2024/02/22 01:17:14;;;;;;;4.70;3.92;;;7.00;99.90;;;;;;4887533;28;20091;-59
2024/02/22 01:19:40;;;;;;;8.15;3.95;;;7.00;99.90;;;;;;4905219;28;20037;-58
2024/02/22 01:22:05;;;;;;;4.68;3.55;;;7.00;99.90;;;;;;4886994;28;20043;-59
2024/02/22 01:24:32;;;;;;;6.35;3.70;;;7.00;99.90;;;;;;4938996;28;20036;-61
2024/02/22 01:26:58;;;;;;;8.85;4.50;;;7.00;99.90;;;;;;4917320;28;20090;-58
2024/02/22 01:29:24;;;;;;;6.72;3.80;;;7.00;99.90;;;;;;4932161;28;20053;-59
2024/02/22 01:31:50;;;;;;;8.65;4.32;;;7.00;99.90;;;;;;4922226;28;20517;-57
2024/02/22 01:34:16;;;;;;;7.15;4.15;;;7.00;99.90;;;;;;4944051;28;20021;-58
2024/02/22 01:36:41;;;;;;;4.82;3.47;;;7.00;99.90;;;;;;4987779;28;20034;-59
2024/02/22 01:39:09;;;;;;;6.35;3.78;;;7.00;99.90;;;;;;4997271;28;20033;-57
2024/02/22 01:41:35;;;;;;;4.35;3.30;;;7.00;99.90;;;;;;4987832;28;20032;-59
2024/02/22 01:44:01;;;;;;;4.22;3.55;;;7.00;99.90;;;;;;4979166;28;20022;-58
2024/02/22 01:46:27;;;;;;;6.13;3.67;;;7.00;99.90;;;;;;4975268;28;20026;-58
2024/02/22 01:48:53;;;;;;;5.53;3.65;;;7.00;99.90;;;;;;4973514;28;21666;-59
2024/02/22 01:51:19;;;;;;;4.90;3.92;;;7.00;99.90;;;;;;4993968;28;20022;-60
2024/02/22 01:53:49;;;;;;;6.82;3.80;;;7.00;99.90;;;;;;4995800;28;20021;-57
2024/02/22 01:56:14;;;;;;;5.82;3.63;;;7.00;99.90;;;;;;4989302;28;20037;-56
2024/02/22 01:58:40;;;;;;;6.07;3.40;;;7.00;99.90;;;;;;4997169;28;20029;-59
2024/02/22 02:01:06;;;;;;;5.40;3.55;;;7.00;99.90;;;;;;4992134;28;20033;-58
2024/02/22 02:03:33;;;;;;;7.70;4.13;;;7.00;99.90;;;;;;4990267;28;20025;-58
2024/02/22 02:05:59;;;;;;;4.20;3.70;;;7.00;99.90;;;;;;4986254;28;20064;-59
2024/02/22 02:08:25;;;;;;;3.45;3.03;;;7.00;99.90;;;;;;5000951;28;20468;-58
2024/02/22 02:10:50;;;;;;;5.20;3.85;;;7.00;99.90;;;;;;4998539;28;20021;-58
2024/02/22 02:13:16;;;;;;;4.25;3.22;;;7.00;99.90;;;;;;4989786;28;20531;-59
2024/02/22 02:15:42;;;;;;;7.88;3.53;;;7.10;99.90;;;;;;4983589;28;20147;-56
2024/02/22 02:18:08;;;;;;;5.32;3.10;;;7.10;99.90;;;;;;4990589;28;20034;-59
2024/02/22 02:20:47;;;;;;;3.25;2.95;;;7.10;99.90;;;;;;4996668;28;20044;-60
2024/02/22 02:23:20;;;;;;;3.85;3.20;;;7.10;99.90;;;;;;4987410;28;20030;-58
2024/02/22 02:25:46;;;;;;;4.45;2.85;;;7.10;99.90;;;;;;4996567;28;20026;-59
2024/02/22 02:28:12;;;;;;;4.25;2.90;;;7.10;99.90;;;;;;4990406;28;20030;-60
2024/02/22 02:30:37;;;;;;;3.70;3.30;;;7.10;99.90;;;;;;4986163;28;20112;-58
2024/02/22 02:33:03;;;;;;;4.80;3.13;;;7.10;99.90;;;;;;4983369;28;20030;-58
2024/02/22 02:35:28;;;;;;;6.45;3.13;;;7.10;99.90;;;;;;4991492;28;22020;-58
2024/02/22 02:37:57;;;;;;;3.83;2.95;;;7.10;99.90;;;;;;4993202;28;20029;-57
2024/02/22 02:40:23;;;;;;;5.78;3.00;;;7.10;99.90;;;;;;4986785;28;20206;-57
2024/02/22 02:42:49;;;;;;;4.05;2.67;;;7.10;99.90;;;;;;4987004;28;20469;-58
2024/02/22 02:45:14;;;;;;;4.90;3.33;;;7.10;99.90;;;;;;4984334;28;20446;-59
2024/02/22 02:47:40;;;;;;;6.55;2.92;;;7.10;99.90;;;;;;4990281;28;20022;-58
2024/02/22 02:50:06;;;;;;;6.40;3.28;;;7.10;99.90;;;;;;4990714;28;20026;-59
2024/02/22 02:52:32;;;;;;;4.13;3.35;;;7.10;99.90;;;;;;4985080;28;20029;-59
2024/02/22 02:54:58;;;;;;;3.95;3.00;;;7.10;99.90;;;;;;4989358;28;20029;-59
2024/02/22 02:57:23;;;;;;;5.07;3.50;;;7.10;99.90;;;;;;4989411;28;20109;-57
2024/02/22 02:59:49;;;;;;;3.78;3.08;;;7.10;99.90;;;;;;4994345;28;20567;-58
2024/02/22 03:02:17;;;;;;;5.43;3.17;;;7.10;99.90;;;;;;4990702;28;20034;-57
2024/02/22 03:04:42;;;;;;;4.18;3.38;;;7.20;99.90;;;;;;5002005;28;20052;-58
2024/02/22 03:07:08;;;;;;;8.38;3.58;;;7.10;99.90;;;;;;4996124;28;20616;-60
2024/02/22 03:09:34;;;;;;;3.80;3.38;;;7.10;99.90;;;;;;4989398;28;20117;-57
2024/02/22 03:11:59;;;;;;;3.38;3.03;;;7.10;99.90;;;;;;4989316;28;20149;-59
2024/02/22 03:14:25;;;;;;;5.63;3.42;;;7.10;99.90;;;;;;4995742;28;20104;-59
2024/02/22 03:16:50;;;;;;;4.43;3.10;;;7.10;99.90;;;;;;5000740;28;20065;-59
2024/02/22 03:19:16;;;;;;;6.03;3.75;;;7.20;99.90;;;;;;4993376;28;20041;-59
2024/02/22 03:21:41;;;;;;;3.72;3.00;;;7.20;99.90;;;;;;4981921;28;20120;-56
2024/02/22 03:24:08;;;;;;;4.45;3.10;;;7.10;99.90;;;;;;4984413;28;20033;-58
2024/02/22 03:26:34;;;;;;;3.55;2.83;;;7.10;99.90;;;;;;5000867;28;20028;-57
2024/02/22 03:29:00;;;;;;;3.55;3.25;;;7.20;99.90;;;;;;4995009;28;20038;-61
2024/02/22 03:31:25;;;;;;;4.47;3.28;;;7.20;99.90;;;;;;4989502;28;20071;-58
2024/02/22 03:33:51;;;;;;;4.75;3.42;;;7.20;99.90;;;;;;4983031;28;20026;-58
2024/02/22 03:36:16;;;;;;;3.88;2.50;;;7.20;99.90;;;;;;4979534;28;20032;-59
2024/02/22 03:38:42;;;;;;;3.40;2.70;;;7.20;99.90;;;;;;4991988;28;20729;-57
2024/02/22 03:41:09;;;;;;;2.95;2.63;;;7.20;99.90;;;;;;4998347;28;20034;-61
2024/02/22 03:43:37;;;;;;;3.25;2.95;;;7.20;99.90;;;;;;4994961;28;20495;-59
2024/02/22 03:46:04;;;;;;;4.90;3.20;;;7.20;99.90;;;;;;4987703;28;20120;-58
2024/02/22 03:48:30;;;;;;;3.50;2.78;;;7.20;99.90;;;;;;4998987;28;20033;-57
2024/02/22 03:50:55;;;;;;;3.42;2.83;;;7.20;99.90;;;;;;4986353;28;20587;-58
2024/02/22 03:53:21;;;;;;;4.18;2.47;;;7.20;99.90;;;;;;4983628;28;20489;-58
2024/02/22 03:55:46;;;;;;;3.10;2.70;;;7.20;99.90;;;;;;4991572;28;22524;-58
2024/02/22 03:58:12;;;;;;;3.45;2.85;;;7.30;99.90;;;;;;4988066;28;20030;-59
2024/02/22 04:00:37;;;;;;;3.90;2.88;;;7.20;99.90;;;;;;4977120;28;20037;-58
2024/02/22 04:03:03;;;;;;;3.78;2.90;;;7.20;99.90;;;;;;4986153;28;20120;-59
2024/02/22 04:05:29;;;;;;;2.85;2.47;;;7.20;99.90;;;;;;4988720;28;20484;-57
2024/02/22 04:07:54;;;;;;;3.10;2.80;;;7.30;99.90;;;;;;4989687;28;20108;-57
2024/02/22 04:10:20;;;;;;;3.15;2.85;;;7.30;99.90;;;;;;4984831;28;20621;-57
2024/02/22 04:12:47;;;;;;;4.05;2.80;;;7.30;99.90;;;;;;4984878;28;20044;-58
2024/02/22 04:15:13;;;;;;;3.67;2.80;;;7.30;99.90;;;;;;4980130;28;20052;-56
2024/02/22 04:17:38;;;;;;;3.63;2.90;;;7.30;99.90;;;;;;4984923;28;20038;-57
2024/02/22 04:20:06;;;;;;;3.33;2.97;;;7.30;99.90;;;;;;4989049;28;20034;-58
2024/02/22 04:22:45;;;;;;;2.75;2.47;;;7.30;99.90;;;;;;4973397;28;20040;-60
2024/02/22 04:25:10;;;;;;;2.60;2.40;;;7.30;99.90;;;;;;4980477;28;20026;-59
2024/02/22 04:27:36;;;;;;;3.15;2.83;;;7.30;99.90;;;;;;4975174;28;20104;-59
2024/02/22 04:30:02;;;;;;;2.95;2.30;;;7.30;99.90;;;;;;4966473;28;20022;-61
2024/02/22 04:32:27;;;;;;;2.80;2.53;;;7.30;99.90;;;;;;4988827;28;20046;-58
2024/02/22 04:34:53;;;;;;;2.42;2.20;;;7.30;99.90;;;;;;4986819;28;20037;-58
2024/02/22 04:37:18;;;;;;;2.70;2.50;;;7.30;99.90;;;;;;4980274;28;20032;-58
2024/02/22 04:39:44;;;;;;;3.60;2.72;;;7.30;99.90;;;;;;4974821;28;20071;-57
2024/02/22 04:42:10;;;;;;;2.90;2.50;;;7.30;99.90;;;;;;4973750;28;20033;-58
2024/02/22 04:44:35;;;;;;;2.70;2.50;;;7.30;99.90;;;;;;4979217;28;21854;-56
2024/02/22 04:47:01;;;;;;;3.25;2.95;;;7.30;99.90;;;;;;4988403;28;20033;-59
2024/02/22 04:49:26;;;;;;;3.90;2.80;;;7.30;99.90;;;;;;4982673;28;20029;-58
2024/02/22 04:51:52;;;;;;;2.78;2.30;;;7.30;99.90;;;;;;4971251;28;20033;-59
2024/02/22 04:54:18;;;;;;;3.63;2.78;;;7.30;99.90;;;;;;4971327;28;20038;-60
2024/02/22 04:56:43;;;;;;;2.33;2.13;;;7.30;99.90;;;;;;4983640;28;20469;-59
2024/02/22 04:59:11;;;;;;;4.40;2.55;;;7.30;99.90;;;;;;4984422;28;20091;-61
2024/02/22 05:01:37;;;;;;;3.00;2.70;;;7.40;99.90;;;;;;4980158;28;20033;-59
2024/02/22 05:04:03;;;;;;;3.08;2.42;;;7.30;99.90;;;;;;4978630;28;20026;-58
2024/02/22 05:06:29;;;;;;;3.03;2.47;;;7.30;99.90;;;;;;4970403;28;20079;-56
2024/02/22 05:08:54;;;;;;;2.53;2.33;;;7.40;99.90;;;;;;4981697;28;20029;-61
2024/02/22 05:11:20;;;;;;;3.58;2.83;;;7.40;99.90;;;;;;4978840;28;20017;-58
2024/02/22 05:13:46;;;;;;;4.03;3.38;;;7.40;99.90;;;;;;4980546;28;20026;-59
2024/02/22 05:16:11;;;;;;;2.97;2.42;;;7.40;99.90;;;;;;4980540;28;20026;-58
2024/02/22 05:18:39;;;;;;;2.38;2.17;;;7.40;99.90;;;;;;4961059;28;20034;-59
2024/02/22 05:21:05;;;;;;;3.72;3.05;;;7.40;99.90;;;;;;4963672;28;20116;-57
2024/02/22 05:23:31;;;;;;;2.42;2.22;;;7.40;99.90;;;;;;4976341;28;20485;-57
2024/02/22 05:25:57;;;;;;;3.83;3.15;;;7.40;99.90;;;;;;4979294;28;20124;-59
2024/02/22 05:28:22;;;;;;;3.47;2.53;;;7.50;99.90;;;;;;4990949;28;20524;-59
2024/02/22 05:30:49;;;;;;;3.75;2.75;;;7.40;99.90;;;;;;4966523;28;20083;-58
2024/02/22 05:33:14;;;;;;;3.03;2.28;;;7.40;99.90;;;;;;4976164;28;22520;-58
2024/02/22 05:35:40;;;;;;;2.35;2.13;;;7.50;99.90;;;;;;4985373;28;20029;-59
2024/02/22 05:38:05;;;;;;;2.38;2.17;;;7.40;99.90;;;;;;4981576;28;20026;-57
2024/02/22 05:40:31;;;;;;;3.15;2.40;;;7.40;99.90;;;;;;4974282;28;20558;-61
2024/02/22 05:42:58;;;;;;;2.45;2.17;;;7.50;99.90;;;;;;4985022;28;20113;-59
2024/02/22 05:45:45;;;;;;;2.03;1.83;;;7.50;99.90;;;;;;4962623;28;21353;-58
2024/02/22 05:48:11;;;;;;;2.13;1.92;;;7.50;99.90;;;;;;4962570;28;20033;-58
2024/02/22 05:50:36;;;;;;;2.22;2.05;;;7.50;99.90;;;;;;4988103;28;20021;-57
2024/02/22 05:53:02;;;;;;;2.33;2.03;;;7.50;99.90;;;;;;4979987;28;20037;-58
2024/02/22 05:55:28;;;;;;;2.03;1.80;;;7.50;99.90;;;;;;4973540;28;20026;-61
2024/02/22 05:57:54;;;;;;;1.50;1.40;;;7.50;99.90;;;;;;4968147;28;20117;-58
2024/02/22 06:00:19;;;;;;;2.17;1.98;;;7.50;99.90;;;;;;4948626;28;20029;-59
2024/02/22 06:02:45;;;;;;;1.65;1.55;;;7.50;99.90;;;;;;4941532;28;20032;-58
2024/02/22 06:05:10;;;;;;;2.20;1.80;;;7.50;99.90;;;;;;4906447;28;20022;-61
2024/02/22 06:07:36;;;;;;;1.55;1.45;;;7.60;99.90;;;;;;4913504;28;20032;-59
2024/02/22 06:10:02;;;;;;;1.50;1.40;;;7.50;99.90;;;;;;4940107;28;20613;-56
2024/02/22 06:12:29;;;;;;;2.08;1.88;;;7.60;99.90;;;;;;4873025;28;20125;-57
2024/02/22 06:14:55;;;;;;;1.55;1.45;;;7.60;99.90;;;;;;4951471;28;20488;-61
2024/02/22 06:17:21;;;;;;;3.08;2.22;;;7.60;99.90;;;;;;4905741;28;20022;-58
2024/02/22 06:19:47;;;;;;;2.78;1.63;;;7.60;99.90;;;;;;4932928;28;20405;-59
2024/02/22 06:22:13;;;;;;;2.33;2.13;;;7.60;99.90;;;;;;4931940;28;20026;-60
2024/02/22 06:24:38;;;;;;;1.67;1.58;;;7.60;99.90;;;;;;4887020;28;20149;-56
2024/02/22 06:27:04;;;;;;;2.38;1.83;;;7.60;99.90;;;;;;4899244;28;20378;-61
2024/02/22 06:29:30;;;;;;;1.98;1.80;;;7.60;99.90;;;;;;5008277;23;21654;-49
2024/02/22 06:31:56;;;;;;;2.33;2.13;;;7.60;99.90;;;;;;4939985;28;20034;-47
2024/02/22 06:34:21;;;;;;;3.03;2.75;;;7.60;99.90;;;;;;4935308;28;20045;-49
2024/02/22 06:36:47;;;;;;;3.20;2.92;;;7.60;99.90;;;;;;4889508;28;20033;-46
2024/02/22 06:39:12;;;;;;;6.00;4.70;;;7.60;99.90;;;;;;4907916;28;20037;-50
2024/02/22 06:41:38;;;;;;;6.10;4.30;;;7.60;99.90;;;;;;4926276;28;21096;-49
2024/02/22 06:44:04;;;;;;;3.75;3.45;;;7.60;99.90;;;;;;4922644;28;20512;-46
2024/02/22 06:46:29;;;;;;;3.13;2.83;;;7.60;99.90;;;;;;4933750;28;20033;-54
2024/02/22 06:48:55;;;;;;;4.28;3.88;;;7.60;99.90;;;;;;4942215;28;20021;-51
2024/02/22 06:51:23;;;;;;;6.45;5.88;;;7.60;99.90;;;;;;4909080;28;21452;-49
2024/02/22 06:53:49;;;;;;;6.47;5.65;;;7.60;99.90;;;;;;4951047;28;20040;-49
2024/02/22 06:56:14;;;;;;;6.28;5.68;;;7.70;99.90;;;;;;4903619;28;20034;-48
2024/02/22 06:58:40;;;;;;;7.95;6.60;;;7.70;99.90;;;;;;4922522;28;20044;-48
2024/02/22 07:01:06;;;;;;;9.25;6.22;;;7.70;99.90;;;;;;4948888;28;20416;-48
2024/02/22 07:03:32;;;;;;;9.02;6.55;;;7.70;99.90;;;;;;4895108;28;20056;-51
2024/02/22 07:05:57;;;;;;;10.18;8.88;;;7.80;99.90;;;;;;4927399;28;20079;-56
2024/02/22 07:08:23;;;;;;;4.75;4.25;;;7.80;99.90;;;;;;4927265;28;20021;-47
2024/02/22 07:10:48;;;;;;;7.00;5.57;;;7.80;99.90;;;;;;4936103;28;21481;-50
2024/02/22 07:13:14;;;;;;;12.13;9.05;;;7.80;99.90;;;;;;4925892;28;20048;-48
2024/02/22 07:15:40;;;;;;;13.00;10.25;;;7.80;99.90;;;;;;4889581;28;20021;-49
2024/02/22 07:18:06;;;;;;;10.98;8.18;;;7.80;99.90;;;;;;4919114;28;20037;-56
2024/02/22 07:20:31;;;;;;;7.82;6.45;;;7.80;99.90;;;;;;4960566;28;20034;-50
2024/02/22 07:22:57;;;;;;;9.57;6.72;;;7.80;99.90;;;;;;4934496;28;20024;-49
2024/02/22 07:25:23;;;;;;;8.30;6.18;;;7.80;99.90;;;;;;4946876;28;20053;-50
2024/02/22 07:27:50;;;;;;;7.13;5.35;;;7.90;99.90;;;;;;4912697;28;20490;-51
2024/02/22 07:30:16;;;;;;;10.57;6.53;;;7.90;99.90;;;;;;4916358;28;21303;-49
2024/02/22 07:32:41;;;;;;;9.77;6.82;;;7.90;99.90;;;;;;4987809;28;20056;-49
2024/02/22 07:35:08;;;;;;;10.65;6.68;;;7.90;99.90;;;;;;4932434;28;20076;-48
2024/02/22 07:37:34;;;;;;;7.82;6.32;;;7.90;99.90;;;;;;4928163;28;20041;-47
2024/02/22 07:40:00;;;;;;;11.23;6.25;;;7.90;99.90;;;;;;4928109;28;20404;-47
2024/02/22 07:42:25;;;;;;;9.50;7.20;;;7.90;99.90;;;;;;4925736;28;21639;-50
2024/02/22 07:44:51;;;;;;;9.90;6.90;;;7.90;99.90;;;;;;4969879;28;20048;-46
2024/02/22 07:47:16;;;;;;;8.50;6.43;;;7.90;99.90;;;;;;4897329;28;20021;-49
2024/02/22 07:49:42;;;;;;;7.95;5.55;;;7.90;99.90;;;;;;4929387;28;20031;-47
2024/02/22 07:52:08;;;;;;;8.25;6.05;;;7.90;99.90;;;;;;4951632;28;20075;-51
2024/02/22 07:54:33;;;;;;;7.45;5.80;;;7.90;99.90;;;;;;4889701;28;20101;-52
2024/02/22 07:56:59;;;;;;;6.35;5.13;;;7.90;99.90;;;;;;4976202;28;20033;-57
2024/02/22 07:59:24;;;;;;;7.47;5.43;;;7.90;99.90;;;;;;4942868;28;20029;-48
2024/02/22 08:01:50;;;;;;;6.53;5.20;;;8.00;99.90;;;;;;4888244;28;21167;-48
2024/02/22 08:04:16;;;;;;;10.25;5.53;;;8.00;99.90;;;;;;4952657;28;20464;-54
2024/02/22 08:06:41;;;;;;;9.80;6.90;;;8.00;99.90;;;;;;4911530;28;20198;-49
2024/02/22 08:09:07;;;;;;;13.18;7.50;;;8.00;99.90;;;;;;4917020;28;20037;-56
2024/02/22 08:11:33;;;;;;;11.80;6.68;;;8.10;99.90;;;;;;4976023;28;20029;-51
2024/02/22 08:13:59;;;;;;;11.50;7.47;;;8.10;99.90;;;;;;4935200;28;20091;-53
2024/02/22 08:16:25;;;;;;;14.00;10.05;;;8.10;99.90;;;;;;4951561;28;20021;-53
2024/02/22 08:18:50;;;;;;;18.88;12.00;;;8.10;99.90;;;;;;4926322;28;20401;-52
2024/02/22 08:21:19;;;;;;;14.23;10.50;;;8.20;99.90;;;;;;4942725;28;22120;-49
2024/02/22 08:23:45;;;;;;;10.25;7.68;;;8.20;99.90;;;;;;4979433;28;20022;-52
2024/02/22 08:26:11;;;;;;;15.48;9.55;;;8.20;99.90;;;;;;4990293;28;20350;-52
2024/02/22 08:28:36;;;;;;;11.00;7.47;;;8.30;99.90;;;;;;4977096;28;20036;-55
2024/02/22 08:31:02;;;;;;;32.67;18.10;;;8.30;99.90;;;;;;4976957;28;20036;-51
2024/02/22 08:33:29;;;;;;;25.65;15.93;;;8.30;99.90;;;;;;4996258;28;22611;-48
2024/02/22 08:35:56;;;;;;;33.28;18.80;;;8.40;99.90;;;;;;4987672;28;20028;-48
2024/02/22 08:38:24;;;;;;;28.75;15.43;;;8.40;99.90;;;;;;4953411;28;20021;-49
2024/02/22 08:40:51;;;;;;;20.13;12.80;;;8.50;99.90;;;;;;4964997;28;21410;-48
2024/02/22 08:43:16;;;;;;;27.52;16.40;;;8.50;99.90;;;;;;5000201;28;22287;-49
2024/02/22 08:45:42;;;;;;;26.27;15.35;;;8.50;99.90;;;;;;4973136;28;20024;-50
2024/02/22 08:48:07;;;;;;;24.05;14.23;;;8.50;99.90;;;;;;4937836;28;20079;-50
2024/02/22 08:50:33;;;;;;;17.00;10.90;;;8.50;99.90;;;;;;4983566;28;20026;-48
2024/02/22 08:52:59;;;;;;;17.13;10.85;;;8.50;99.90;;;;;;4963167;28;20109;-52
2024/02/22 08:55:25;;;;;;;15.80;9.77;;;8.50;99.90;;;;;;4980981;28;20120;-51
2024/02/22 08:57:50;;;;;;;11.55;8.90;;;8.60;99.90;;;;;;4987943;28;20060;-49
2024/02/22 09:00:19;;;;;;;13.68;9.15;;;8.60;99.90;;;;;;4931706;28;20497;-53
2024/02/22 09:02:46;;;;;;;9.75;7.25;;;8.60;99.90;;;;;;4977012;28;20033;-50
2024/02/22 09:05:11;;;;;;;9.93;7.68;;;8.60;99.90;;;;;;4948913;28;20105;-53
2024/02/22 09:07:38;;;;;;;11.85;7.55;;;8.60;99.90;;;;;;4945621;28;20120;-57
2024/02/22 09:10:04;;;;;;;12.70;8.43;;;8.70;99.90;;;;;;4986852;28;20737;-49
2024/02/22 09:12:30;;;;;;;10.50;7.93;;;8.70;99.90;;;;;;4981823;28;20040;-51
2024/02/22 09:14:56;;;;;;;13.10;8.10;;;8.70;99.90;;;;;;4967591;28;20034;-51
2024/02/22 09:17:22;;;;;;;16.45;9.90;;;8.70;99.90;;;;;;4975297;28;20029;-51
2024/02/22 09:19:49;;;;;;;17.98;11.57;;;8.80;99.90;;;;;;4928722;28;21834;-47
2024/02/22 09:22:15;;;;;;;17.23;10.48;;;8.80;99.90;;;;;;4987974;28;20036;-50
2024/02/22 09:24:45;;;;;;;20.08;12.95;;;8.80;99.90;;;;;;4971217;28;20021;-50
2024/02/22 09:27:12;;;;;;;16.10;10.55;;;8.80;99.90;;;;;;4964904;28;20017;-49
2024/02/22 09:29:38;;;;;;;10.52;7.28;;;8.90;99.90;;;;;;4961844;28;20029;-52
2024/02/22 09:32:06;;;;;;;12.55;7.38;;;8.90;99.90;;;;;;4962041;28;20053;-50
2024/02/22 09:34:39;;;;;;;10.57;8.05;;;8.90;99.90;;;;;;4966189;28;20053;-57
2024/02/22 09:37:05;;;;;;;10.93;7.22;;;9.00;99.90;;;;;;4977644;28;20026;-53
2024/02/22 09:39:33;;;;;;;10.52;7.65;;;9.00;99.90;;;;;;4970257;28;20525;-50
2024/02/22 09:41:59;;;;;;;13.00;8.13;;;9.10;99.90;;;;;;4969372;28;20034;-52
2024/02/22 09:44:26;;;;;;;12.50;7.53;;;9.10;99.90;;;;;;4966276;28;20087;-51
2024/02/22 09:46:53;;;;;;;12.65;8.65;;;9.10;99.90;;;;;;4945143;28;21359;-52
2024/02/22 09:49:23;;;;;;;16.25;10.02;;;9.20;99.90;;;;;;4976258;28;21446;-52
2024/02/22 09:51:53;;;;;;;15.55;9.95;;;9.20;99.90;;;;;;4940684;28;20029;-51
2024/02/22 09:54:20;;;;;;;12.13;7.18;;;9.20;99.90;;;;;;4929514;28;20632;-52
2024/02/22 09:56:48;;;;;;;14.35;9.13;;;9.30;99.90;;;;;;4964164;28;20036;-52
2024/02/22 09:59:14;;;;;;;10.07;7.38;;;9.30;99.90;;;;;;4962388;28;20029;-52
2024/02/22 10:01:40;;;;;;;11.35;7.75;;;9.30;99.90;;;;;;4954112;28;20026;-51
2024/02/22 10:04:24;;;;;;;12.77;8.00;;;9.30;99.90;;;;;;4982617;28;20033;-48
2024/02/22 10:06:58;;;;;;;8.52;5.88;;;9.40;99.90;;;;;;4984939;28;20029;-49
2024/02/22 10:09:24;;;;;;;9.30;6.55;;;9.50;99.90;;;;;;5013202;28;20477;-49
2024/02/22 10:11:49;;;;;;;11.45;8.18;;;9.60;99.90;;;;;;4998547;28;20026;-54
2024/02/22 10:14:15;;;;;;;11.02;7.07;;;9.60;99.90;;;;;;5001739;28;20072;-47
2024/02/22 10:16:41;;;;;;;10.52;7.28;;;9.70;99.90;;;;;;4979080;28;20101;-48
2024/02/22 10:19:12;;;;;;;8.18;6.43;;;9.70;99.90;;;;;;4973947;28;20033;-50
2024/02/22 10:21:38;;;;;;;9.30;5.78;;;9.70;99.90;;;;;;4982599;28;20056;-49
2024/02/22 10:24:04;;;;;;;10.55;6.95;;;9.80;99.90;;;;;;4989356;28;20517;-53
2024/02/22 10:26:30;;;;;;;11.13;6.97;;;9.80;99.90;;;;;;4965447;28;20048;-57
2024/02/22 10:28:56;;;;;;;10.30;7.22;;;9.80;99.90;;;;;;4984099;28;20122;-48
2024/02/22 10:31:22;;;;;;;12.65;7.10;;;9.80;99.90;;;;;;4966125;28;20026;-47
2024/02/22 10:33:48;;;;;;;11.40;8.10;;;9.80;99.90;;;;;;4988880;28;20056;-52
2024/02/22 10:36:16;;;;;;;11.05;7.70;;;9.90;99.90;;;;;;4968390;28;20037;-54
2024/02/22 10:38:41;;;;;;;9.43;6.90;;;9.80;99.90;;;;;;4989362;28;20116;-52
2024/02/22 10:41:10;;;;;;;6.57;4.88;;;9.90;99.90;;;;;;4997811;28;20108;-49
2024/02/22 10:43:41;;;;;;;8.20;5.28;;;9.90;99.90;;;;;;4970961;28;20034;-52
2024/02/22 10:46:09;;;;;;;9.60;4.75;;;9.90;99.90;;;;;;4979862;28;20033;-51
2024/02/22 10:48:36;;;;;;;7.97;4.63;;;9.90;99.90;;;;;;5004596;28;20075;-50
2024/02/22 10:51:04;;;;;;;5.75;4.32;;;9.90;99.90;;;;;;4985376;28;20474;-49
2024/02/22 10:53:36;;;;;;;6.18;4.15;;;9.90;99.90;;;;;;4970758;28;20112;-57
2024/02/22 10:56:04;;;;;;;7.60;5.53;;;10.00;99.90;;;;;;4984179;28;20029;-50
2024/02/22 10:58:33;;;;;;;6.97;4.95;;;10.00;99.90;;;;;;4960305;28;20022;-47
2024/02/22 11:01:06;;;;;;;7.70;5.32;;;10.10;99.90;;;;;;4987063;28;20056;-60
2024/02/22 11:03:33;;;;;;;6.65;5.22;;;10.20;99.90;;;;;;4983228;28;21207;-49
2024/02/22 11:06:03;;;;;;;6.25;4.82;;;10.20;99.90;;;;;;4983849;28;20130;-50
2024/02/22 11:08:29;;;;;;;7.03;4.75;;;10.30;99.90;;;;;;5000085;28;20021;-57
2024/02/22 11:11:08;;;;;;;6.65;4.80;;;10.20;99.90;;;;;;4963612;28;20154;-47
2024/02/22 11:13:34;;;;;;;6.05;4.82;;;10.20;99.90;;;;;;4972136;28;20026;-49
2024/02/22 11:16:11;;;;;;;5.80;4.18;;;10.20;99.90;;;;;;4972545;28;20628;-55
2024/02/22 11:18:36;;;;;;;;;;;10.20;99.90;;;;;;5004101;28;20022;-47
2024/02/22 11:21:11;;;;;;;4.37;3.67;;;10.10;99.90;;;;;;4982772;28;19913;-47
2024/02/22 11:23:37;;;;;;;6.83;4.47;;;10.10;99.90;;;;;;4981977;28;20033;-53
2024/02/22 11:26:02;;;;;;;6.45;4.50;;;10.10;99.90;;;;;;4972425;28;20025;-51
2024/02/22 11:28:28;;;;;;;6.05;4.20;;;10.10;99.90;;;;;;4963749;28;20037;-50
2024/02/22 11:30:54;;;;;;;6.85;4.18;;;10.10;99.90;;;;;;4997645;28;20079;-48
2024/02/22 11:33:22;;;;;;;5.60;4.00;;;10.10;99.90;;;;;;4978080;28;20481;-49
2024/02/22 11:35:53;;;;;;;7.65;4.72;;;10.10;99.90;;;;;;4981107;28;20036;-53
2024/02/22 11:38:20;;;;;;;6.07;4.22;;;10.10;99.90;;;;;;4955717;28;20596;-52
2024/02/22 11:40:46;;;;;;;6.32;4.72;;;10.10;99.90;;;;;;4963645;28;20029;-51
2024/02/22 11:43:11;;;;;;;7.57;4.63;;;10.10;99.90;;;;;;4960233;28;20022;-50
2024/02/22 11:45:38;;;;;;;7.75;5.00;;;10.00;99.90;;;;;;4994627;28;20150;-51
2024/02/22 11:48:05;;;;;;;8.15;5.72;;;10.10;99.90;;;;;;4976947;28;20032;-52
2024/02/22 11:50:32;;;;;;;6.13;5.00;;;10.10;99.90;;;;;;4982223;28;20029;-56
2024/02/22 11:52:58;;;;;;;8.57;5.63;;;10.10;99.90;;;;;;4979675;28;20036;-52
2024/02/22 11:55:24;;;;;;;8.48;5.30;;;10.20;99.90;;;;;;4966110;28;20079;-51
2024/02/22 11:57:50;;;;;;;8.15;5.90;;;10.20;99.90;;;;;;4989617;28;20029;-53
2024/02/22 12:00:16;;;;;;;8.07;5.25;;;10.30;99.90;;;;;;4974748;28;20418;-50
2024/02/22 12:02:42;;;;;;;8.30;6.10;;;10.30;99.90;;;;;;4975302;28;20022;-52
2024/02/22 12:05:09;;;;;;;6.28;5.22;;;10.40;99.90;;;;;;4990479;28;20029;-51
2024/02/22 12:07:37;;;;;;;7.68;5.03;;;10.40;99.90;;;;;;4971821;28;20033;-49
2024/02/22 12:10:05;;;;;;;7.50;5.38;;;10.50;99.90;;;;;;4969920;28;20370;-57
2024/02/22 12:12:31;;;;;;;10.48;6.63;;;10.60;99.90;;;;;;4974855;28;21392;-51
2024/02/22 12:15:01;;;;;;;9.23;6.60;;;10.60;99.90;;;;;;4970850;28;20029;-48
2024/02/22 12:17:34;;;;;;;7.70;5.80;;;10.70;99.90;;;;;;4945279;28;20131;-47
2024/02/22 12:20:01;;;;;;;8.77;5.75;;;10.70;99.90;;;;;;4947364;28;20426;-50
2024/02/22 12:22:31;;;;;;;8.48;5.63;;;10.70;99.90;;;;;;4938107;28;20524;-48
2024/02/22 12:24:57;;;;;;;8.93;6.07;;;10.70;99.90;;;;;;4978898;28;20159;-56
2024/02/22 12:27:24;;;;;;;14.07;6.85;;;10.70;99.90;;;;;;4921056;28;21323;-51
2024/02/22 12:29:50;;;;;;;8.85;5.90;;;10.80;99.90;;;;;;5038271;23;21432;-63
2024/02/22 12:32:16;;;;;;;8.60;5.97;;;10.90;99.90;;;;;;4988748;28;20028;-63
2024/02/22 12:34:41;;;;;;;11.50;7.45;;;10.90;99.90;;;;;;4978641;28;20048;-63
2024/02/22 12:37:07;;;;;;;13.07;7.28;;;11.00;99.90;;;;;;4991393;28;20113;-63
2024/02/22 12:39:32;;;;;;;11.65;7.43;;;11.10;99.90;;;;;;4993362;28;21453;-63
2024/02/22 12:42:02;;;;;;;13.13;6.88;;;11.10;99.90;;;;;;5002688;28;20043;-64
2024/02/22 12:44:28;;;;;;;10.57;7.10;;;11.20;99.90;;;;;;5009241;28;20024;-63
2024/02/22 12:46:54;;;;;;;11.38;6.72;;;11.30;99.90;;;;;;4966537;28;20407;-63
2024/02/22 12:49:21;;;;;;;10.60;6.57;;;11.20;99.90;;;;;;5007728;28;20032;-63